createdAt,value
2023-03-22T00:00:17.314Z,9.15
2023-03-22T00:02:43.836Z,9.15
2023-03-22T00:05:10.454Z,9.13
2023-03-22T00:07:45.369Z,9.08
2023-03-22T00:10:12.099Z,9.01
2023-03-22T00:15:24.668Z,8.94
2023-03-22T00:17:53.895Z,8.95
2023-03-22T00:20:20.943Z,8.91
2023-03-22T00:22:58.293Z,8.88
2023-03-22T00:25:27.533Z,8.87
2023-03-22T00:27:56.236Z,8.87
2023-03-22T00:30:22.798Z,8.88
2023-03-22T00:32:52.696Z,8.91
2023-03-22T00:35:22.162Z,8.92
2023-03-22T00:37:54.466Z,8.93
2023-03-22T00:40:23.214Z,8.92
2023-03-22T00:42:49.631Z,8.94
2023-03-22T00:47:58.046Z,8.91
2023-03-22T00:50:24.602Z,8.88
2023-03-22T00:52:50.986Z,8.86
2023-03-22T00:55:17.407Z,8.84
2023-03-22T00:57:56.070Z,8.80
2023-03-22T01:00:25.423Z,8.80
2023-03-22T01:02:55.444Z,8.77
2023-03-22T01:05:22.037Z,8.77
2023-03-22T01:07:51.245Z,8.79
2023-03-22T01:10:22.691Z,8.81
2023-03-22T01:12:49.716Z,8.83
2023-03-22T01:15:18.164Z,8.83
2023-03-22T01:17:44.569Z,8.85
2023-03-22T01:20:11.603Z,8.86
2023-03-22T01:22:40.610Z,8.88
2023-03-22T01:25:10.204Z,8.87
2023-03-22T01:27:40.093Z,8.88
2023-03-22T01:30:14.759Z,8.89
2023-03-22T01:32:43.563Z,8.92
2023-03-22T01:35:17.559Z,8.91
2023-03-22T01:37:47.349Z,8.93
2023-03-22T01:40:17.898Z,8.93
2023-03-22T01:42:44.609Z,8.92
2023-03-22T01:46:02.199Z,8.92
2023-03-22T01:48:35.354Z,8.92
2023-03-22T01:51:28.143Z,8.93
2023-03-22T01:54:19.665Z,8.93
2023-03-22T01:56:46.826Z,8.94
2023-03-22T01:59:37.286Z,8.95
2023-03-22T02:02:04.680Z,8.98
2023-03-22T02:04:45.667Z,8.98
2023-03-22T02:07:15.862Z,8.99
2023-03-22T02:09:46.784Z,8.97
2023-03-22T02:12:25.606Z,8.98
2023-03-22T02:15:11.196Z,8.99
2023-03-22T02:18:08.862Z,9.00
2023-03-22T02:21:02.508Z,9.00
2023-03-22T02:24:00.316Z,8.99
2023-03-22T02:27:02.799Z,8.97
2023-03-22T02:30:15.520Z,8.97
2023-03-22T02:33:11.039Z,8.97
2023-03-22T02:36:08.918Z,8.98
2023-03-22T02:39:20.307Z,8.99
2023-03-22T02:42:01.735Z,9.00
2023-03-22T02:47:45.843Z,9.03
2023-03-22T02:50:30.772Z,9.04
2023-03-22T02:53:32.191Z,9.07
2023-03-22T02:56:04.395Z,9.08
2023-03-22T02:58:42.452Z,9.08
2023-03-22T03:01:29.310Z,9.11
2023-03-22T03:04:07.303Z,9.11
2023-03-22T03:06:47.193Z,9.15
2023-03-22T03:09:48.712Z,9.16
2023-03-22T03:12:22.048Z,9.17
2023-03-22T03:14:48.563Z,9.17
2023-03-22T03:21:17.975Z,9.15
2023-03-22T03:24:01.518Z,9.15
2023-03-22T03:26:33.668Z,9.12
2023-03-22T03:29:19.553Z,9.11
2023-03-22T03:32:10.206Z,9.11
2023-03-22T03:34:57.195Z,9.10
2023-03-22T03:37:38.510Z,9.10
2023-03-22T03:40:10.905Z,9.11
2023-03-22T03:42:50.167Z,9.12
2023-03-22T03:45:19.941Z,9.16
2023-03-22T03:48:10.192Z,9.18
2023-03-22T03:50:36.945Z,9.19
2023-03-22T03:53:05.288Z,9.18
2023-03-22T03:55:34.540Z,9.19
2023-03-22T03:58:03.480Z,9.23
2023-03-22T04:00:35.638Z,9.25
2023-03-22T04:03:02.569Z,9.32
2023-03-22T04:05:31.760Z,9.32
2023-03-22T04:08:01.167Z,9.33
2023-03-22T04:10:27.829Z,9.34
2023-03-22T04:12:56.533Z,9.36
2023-03-22T04:15:26.104Z,9.38
2023-03-22T04:18:01.237Z,9.37
2023-03-22T04:20:27.707Z,9.40
2023-03-22T04:22:54.047Z,9.43
2023-03-22T04:25:30.239Z,9.45
2023-03-22T04:27:56.836Z,9.48
2023-03-22T04:30:27.411Z,9.49
2023-03-22T04:32:54.626Z,9.51
2023-03-22T04:35:21.003Z,9.53
2023-03-22T04:38:00.228Z,9.54
2023-03-22T04:40:39.876Z,9.56
2023-03-22T04:43:06.656Z,9.58
2023-03-22T04:45:35.866Z,9.57
2023-03-22T04:48:02.247Z,9.57
2023-03-22T04:50:28.743Z,9.55
2023-03-22T04:52:58.582Z,9.55
2023-03-22T04:55:28.057Z,9.53
2023-03-22T04:57:57.250Z,9.54
2023-03-22T05:00:23.896Z,9.56
2023-03-22T05:02:50.580Z,9.57
2023-03-22T05:05:17.076Z,9.58
2023-03-22T05:07:51.835Z,9.57
2023-03-22T05:10:18.399Z,9.55
2023-03-22T05:15:26.827Z,9.53
2023-03-22T05:17:59.269Z,9.50
2023-03-22T05:20:25.639Z,9.48
2023-03-22T05:22:56.787Z,9.45
2023-03-22T05:25:23.149Z,9.42
2023-03-22T05:27:52.837Z,9.40
2023-03-22T05:30:20.575Z,9.40
2023-03-22T05:32:47.473Z,9.38
2023-03-22T05:35:14.074Z,9.37
2023-03-22T05:37:49.249Z,9.33
2023-03-22T05:40:15.618Z,9.32
2023-03-22T05:42:45.207Z,9.32
2023-03-22T05:45:15.410Z,9.31
2023-03-22T05:47:45.062Z,9.30
2023-03-22T05:50:16.201Z,9.30
2023-03-22T05:52:46.707Z,9.32
2023-03-22T05:55:20.360Z,9.33
2023-03-22T05:57:47.597Z,9.34
2023-03-22T06:00:20.447Z,9.34
2023-03-22T06:02:49.241Z,9.34
2023-03-22T06:05:23.314Z,9.37
2023-03-22T06:07:49.706Z,9.38
2023-03-22T06:12:57.075Z,9.44
2023-03-22T06:15:25.032Z,9.49
2023-03-22T06:17:51.369Z,9.55
2023-03-22T06:20:17.788Z,9.59
2023-03-22T06:22:45.509Z,9.61
2023-03-22T06:25:14.322Z,9.60
2023-03-22T06:27:40.789Z,9.61
2023-03-22T06:30:13.538Z,9.62
2023-03-22T06:32:39.926Z,9.73
2023-03-22T06:35:06.945Z,9.86
2023-03-22T06:37:41.015Z,10.08
2023-03-22T06:40:08.612Z,10.35
2023-03-22T06:42:41.346Z,10.56
2023-03-22T06:45:22.267Z,10.64
2023-03-22T06:47:50.218Z,10.60
2023-03-22T06:50:20.302Z,10.58
2023-03-22T06:52:46.909Z,10.61
2023-03-22T06:55:17.332Z,10.61
2023-03-22T06:57:44.231Z,10.64
2023-03-22T07:00:13.585Z,10.67
2023-03-22T07:02:39.925Z,10.76
2023-03-22T07:05:12.409Z,10.78
2023-03-22T07:07:38.808Z,10.72
2023-03-22T07:10:09.806Z,10.76
2023-03-22T07:12:36.392Z,10.78
2023-03-22T07:15:03.040Z,10.75
2023-03-22T07:17:29.861Z,10.73
2023-03-22T07:19:59.757Z,10.70
2023-03-22T07:22:29.306Z,10.69
2023-03-22T07:25:01.816Z,10.66
2023-03-22T07:27:31.326Z,10.66
2023-03-22T07:29:57.767Z,10.68
2023-03-22T07:32:27.325Z,10.78
2023-03-22T07:34:53.858Z,10.84
2023-03-22T07:37:20.421Z,10.92
2023-03-22T07:39:49.146Z,11.01
2023-03-22T07:42:18.924Z,11.08
2023-03-22T07:44:51.645Z,11.08
2023-03-22T07:47:37.702Z,11.09
2023-03-22T07:50:06.702Z,11.15
2023-03-22T07:52:33.417Z,11.14
2023-03-22T07:55:00.104Z,11.13
2023-03-22T07:57:26.541Z,11.12
2023-03-22T07:59:52.957Z,11.15
2023-03-22T08:02:23.174Z,11.22
2023-03-22T08:04:56.509Z,11.44
2023-03-22T08:07:32.851Z,11.54
2023-03-22T08:09:59.404Z,11.60
2023-03-22T08:12:29.443Z,11.69
2023-03-22T08:14:56.517Z,11.77
2023-03-22T08:17:23.725Z,11.81
2023-03-22T08:19:50.440Z,11.78
2023-03-22T08:22:19.899Z,11.78
2023-03-22T08:24:46.695Z,11.67
2023-03-22T08:27:26.377Z,11.56
2023-03-22T08:29:55.952Z,11.52
2023-03-22T08:32:25.404Z,11.53
2023-03-22T08:34:52.820Z,11.48
2023-03-22T08:37:22.470Z,11.53
2023-03-22T08:39:52.396Z,11.62
2023-03-22T08:42:21.640Z,11.63
2023-03-22T08:44:48.069Z,11.75
2023-03-22T08:47:14.487Z,11.87
2023-03-22T08:49:41.746Z,11.96
2023-03-22T08:52:20.311Z,12.03
2023-03-22T08:54:49.778Z,12.18
2023-03-22T08:57:21.440Z,12.23
2023-03-22T08:59:52.055Z,12.07
2023-03-22T09:02:25.532Z,12.02
2023-03-22T09:04:56.546Z,11.88
2023-03-22T09:07:27.240Z,11.72
2023-03-22T09:09:55.036Z,11.61
2023-03-22T09:12:23.195Z,11.65
2023-03-22T09:14:49.973Z,11.71
2023-03-22T09:17:22.444Z,11.71
2023-03-22T09:20:02.707Z,11.73
2023-03-22T09:22:37.277Z,11.77
2023-03-22T09:25:12.169Z,11.73
2023-03-22T09:27:39.979Z,11.69
2023-03-22T09:30:13.112Z,11.69
2023-03-22T09:32:39.523Z,11.77
2023-03-22T09:35:07.139Z,11.82
2023-03-22T09:37:34.930Z,11.70
2023-03-22T09:40:06.653Z,11.65
2023-03-22T09:42:37.870Z,11.62
2023-03-22T09:45:17.892Z,11.50
2023-03-22T09:47:53.279Z,11.44
2023-03-22T09:50:29.408Z,11.34
2023-03-22T09:52:56.191Z,11.30
2023-03-22T09:55:54.068Z,11.21
2023-03-22T09:58:54.213Z,11.15
2023-03-22T10:01:55.354Z,11.04
2023-03-22T10:04:31.321Z,11.00
2023-03-22T10:07:23.825Z,10.98
2023-03-22T10:10:19.614Z,10.94
2023-03-22T10:13:07.715Z,10.92
2023-03-22T10:15:42.789Z,10.95
2023-03-22T10:18:19.089Z,10.98
2023-03-22T10:21:06.318Z,10.93
2023-03-22T10:23:43.942Z,10.96
2023-03-22T10:26:42.437Z,10.95
2023-03-22T10:29:23.815Z,10.98
2023-03-22T10:31:54.864Z,10.95
2023-03-22T10:34:27.931Z,10.98
2023-03-22T10:36:55.716Z,11.03
2023-03-22T10:39:40.782Z,11.06
2023-03-22T10:42:32.998Z,11.03
2023-03-22T10:45:03.967Z,11.01
2023-03-22T10:47:44.647Z,10.95
2023-03-22T10:50:21.698Z,10.94
2023-03-22T10:53:27.115Z,10.88
2023-03-22T10:56:01.064Z,10.86
2023-03-22T10:58:41.412Z,10.92
2023-03-22T11:01:10.936Z,10.95
2023-03-22T11:03:43.218Z,11.00
2023-03-22T11:06:16.230Z,11.13
2023-03-22T11:08:57.336Z,11.22
2023-03-22T11:11:35.893Z,11.30
2023-03-22T11:14:15.829Z,11.37
2023-03-22T11:17:09.986Z,11.46
2023-03-22T11:19:41.542Z,11.55
2023-03-22T11:22:28.846Z,11.51
2023-03-22T11:25:03.197Z,11.37
2023-03-22T11:27:37.497Z,11.37
2023-03-22T11:30:28.767Z,11.43
2023-03-22T11:33:19.568Z,11.47
2023-03-22T11:36:17.064Z,11.48
2023-03-22T11:38:45.593Z,11.44
2023-03-22T11:41:24.913Z,11.53
2023-03-22T11:44:02.749Z,11.54
2023-03-22T11:46:34.493Z,11.48
2023-03-22T11:49:09.101Z,11.50
2023-03-22T11:51:38.434Z,11.51
2023-03-22T11:54:25.455Z,11.48
2023-03-22T11:57:02.781Z,11.46
2023-03-22T12:00:19.952Z,11.40
2023-03-22T12:03:09.752Z,11.34
2023-03-22T12:05:44.758Z,11.30
2023-03-22T12:08:46.092Z,11.28
2023-03-22T12:11:21.145Z,11.26
2023-03-22T12:13:54.830Z,11.30
2023-03-22T12:16:28.918Z,11.31
2023-03-22T12:19:16.828Z,11.32
2023-03-22T12:21:52.783Z,11.38
2023-03-22T12:24:34.875Z,11.37
2023-03-22T12:27:14.867Z,11.39
2023-03-22T12:29:59.932Z,11.37
2023-03-22T12:32:33.111Z,11.38
2023-03-22T12:35:14.134Z,11.40
2023-03-22T12:37:55.971Z,11.40
2023-03-22T12:40:30.998Z,11.41
2023-03-22T12:43:07.493Z,11.40
2023-03-22T12:45:43.965Z,11.39
2023-03-22T12:48:26.743Z,11.39
2023-03-22T12:50:58.833Z,11.44
2023-03-22T12:56:45.911Z,11.46
2023-03-22T12:59:17.724Z,11.50
2023-03-22T13:02:00.762Z,11.51
2023-03-22T13:05:16.760Z,11.51
2023-03-22T13:08:00.800Z,11.53
2023-03-22T13:10:34.002Z,11.55
2023-03-22T13:13:22.125Z,11.58
2023-03-22T13:16:15.199Z,11.55
2023-03-22T13:18:45.138Z,11.53
2023-03-22T13:21:24.873Z,11.47
2023-03-22T13:24:10.157Z,11.45
2023-03-22T13:26:49.315Z,11.43
2023-03-22T13:29:28.135Z,11.46
2023-03-22T13:34:46.815Z,11.49
2023-03-22T13:37:59.137Z,11.52
2023-03-22T13:40:39.211Z,11.55
2023-03-22T13:43:37.654Z,11.58
2023-03-22T13:46:22.318Z,11.63
2023-03-22T13:49:00.842Z,11.59
2023-03-22T13:51:37.502Z,11.62
2023-03-22T13:56:59.636Z,11.59
2023-03-22T13:59:35.880Z,11.58
2023-03-22T14:02:27.751Z,11.62
2023-03-22T14:04:56.302Z,11.65
2023-03-22T14:07:31.452Z,11.67
2023-03-22T14:10:08.102Z,11.67
2023-03-22T14:12:48.003Z,11.63
2023-03-22T14:15:25.142Z,11.65
2023-03-22T14:17:59.601Z,11.69
2023-03-22T14:20:51.912Z,11.73
